createdAt,value
2019-05-01T00:02:10.480Z,980.30
2019-05-01T00:05:16.301Z,505.47
2019-05-01T00:08:20.157Z,519.00
2019-05-01T00:11:24.810Z,562.20
2019-05-01T00:14:43.122Z,1014.13
2019-05-01T00:17:36.327Z,1253.20
2019-05-01T00:20:47.542Z,1268.50
2019-05-01T00:23:51.377Z,1156.33
2019-05-01T00:26:55.218Z,772.37
2019-05-01T00:30:00.211Z,1075.00
2019-05-01T00:33:04.513Z,721.37
2019-05-01T00:36:08.358Z,625.77
2019-05-01T00:39:16.275Z,875.97
2019-05-01T00:42:20.161Z,598.03
2019-05-01T00:45:24.995Z,485.30
2019-05-01T00:48:30.142Z,569.57
2019-05-01T00:51:34.023Z,1777.60
2019-05-01T00:54:41.681Z,1411.57
2019-05-01T00:58:03.337Z,924.83
2019-05-01T01:01:12.058Z,1091.53
2019-05-01T01:04:18.463Z,771.07
2019-05-01T01:07:22.299Z,244.60
2019-05-01T01:10:27.156Z,761.37
2019-05-01T01:13:32.112Z,668.47
2019-05-01T01:16:35.992Z,560.73
2019-05-01T01:19:39.852Z,561.07
2019-05-01T01:22:43.776Z,189.13
2019-05-01T01:25:48.117Z,121.70
2019-05-01T01:28:52.077Z,111.87
2019-05-01T01:31:55.912Z,126.03
2019-05-01T01:34:59.802Z,90.27
2019-05-01T01:38:05.239Z,86.63
2019-05-01T01:41:11.807Z,71.73
2019-05-01T01:44:18.223Z,65.93
2019-05-01T01:47:23.205Z,647.70
2019-05-01T01:50:32.373Z,114.83
2019-05-01T01:53:36.568Z,97.03
2019-05-01T01:56:40.492Z,80.50
2019-05-01T01:59:44.513Z,71.50
2019-05-01T02:02:49.924Z,134.10
2019-05-01T02:05:53.820Z,704.93
2019-05-01T02:08:57.872Z,67.23
2019-05-01T02:12:03.359Z,63.87
2019-05-01T02:15:07.529Z,72.57
2019-05-01T02:18:11.423Z,81.37
2019-05-01T02:21:17.423Z,81.93
2019-05-01T02:24:22.958Z,74.63
2019-05-01T02:27:28.475Z,65.97
2019-05-01T02:30:34.640Z,68.83
2019-05-01T02:33:45.882Z,84.43
2019-05-01T02:36:52.376Z,81.37
2019-05-01T02:39:58.704Z,75.27
2019-05-01T02:43:04.857Z,82.90
2019-05-01T02:46:11.873Z,69.93
2019-05-01T02:49:32.372Z,86.90
2019-05-01T02:52:42.379Z,94.00
2019-05-01T02:56:14.635Z,115.17
2019-05-01T02:59:22.278Z,125.33
2019-05-01T03:02:29.077Z,101.90
2019-05-01T03:05:44.673Z,155.70
2019-05-01T03:08:49.057Z,154.20
2019-05-01T03:11:55.903Z,164.73
2019-05-01T03:15:02.513Z,149.33
2019-05-01T03:18:15.522Z,131.47
2019-05-01T03:21:26.805Z,120.07
2019-05-01T03:24:31.098Z,113.50
2019-05-01T03:27:35.899Z,104.00
2019-05-01T03:30:41.184Z,107.43
2019-05-01T03:33:45.201Z,100.23
2019-05-01T03:36:53.347Z,113.80
2019-05-01T03:39:57.238Z,94.43
2019-05-01T03:43:01.154Z,109.83
2019-05-01T03:46:08.415Z,112.17
2019-05-01T03:49:13.141Z,111.03
2019-05-01T03:52:17.373Z,104.67
2019-05-01T03:55:22.640Z,118.87
2019-05-01T03:58:26.564Z,118.20
2019-05-01T04:01:43.934Z,118.90
2019-05-01T04:04:50.469Z,160.63
2019-05-01T04:07:54.242Z,149.40
2019-05-01T04:10:59.608Z,118.30
2019-05-01T04:14:05.991Z,121.03
2019-05-01T04:17:25.296Z,112.47
2019-05-01T04:20:30.256Z,111.97
2019-05-01T04:23:34.278Z,114.03
2019-05-01T04:26:40.420Z,106.23
2019-05-01T04:29:45.876Z,93.93
2019-05-01T04:32:53.361Z,97.20
2019-05-01T04:36:08.323Z,101.47
2019-05-01T04:39:12.859Z,92.37
2019-05-01T04:42:17.279Z,94.97
2019-05-01T04:45:23.179Z,99.93
2019-05-01T04:48:28.868Z,96.93
2019-05-01T04:51:34.741Z,94.57
2019-05-01T04:54:41.502Z,99.00
2019-05-01T04:57:47.873Z,99.47
2019-05-01T05:00:54.259Z,102.67
2019-05-01T05:03:58.554Z,112.17
2019-05-01T05:07:03.457Z,107.23
2019-05-01T05:10:07.442Z,102.10
2019-05-01T05:13:15.660Z,98.57
2019-05-01T05:16:40.302Z,98.80
2019-05-01T05:19:46.060Z,101.23
2019-05-01T05:22:52.828Z,91.10
2019-05-01T05:25:56.892Z,99.13
2019-05-01T05:29:01.157Z,94.33
2019-05-01T05:32:05.142Z,83.37
2019-05-01T05:35:10.923Z,81.13
2019-05-01T05:38:18.155Z,82.63
2019-05-01T05:41:23.231Z,78.90
2019-05-01T05:44:27.557Z,72.10
2019-05-01T05:47:31.413Z,73.40
2019-05-01T05:50:45.032Z,79.07
2019-05-01T05:53:52.772Z,83.77
2019-05-01T05:57:01.046Z,83.50
2019-05-01T06:00:08.867Z,81.00
2019-05-01T06:03:35.019Z,70.50
2019-05-01T06:06:44.663Z,73.23
2019-05-01T06:10:02.500Z,72.10
2019-05-01T06:13:10.913Z,74.00
2019-05-01T06:16:28.778Z,64.23
2019-05-01T06:19:39.686Z,77.93
2019-05-01T06:23:02.637Z,70.27
2019-05-01T06:26:26.544Z,72.70
2019-05-01T06:29:31.050Z,62.97
2019-05-01T06:32:36.259Z,56.77
2019-05-01T06:35:40.187Z,55.00
2019-05-01T06:38:44.615Z,56.47
2019-05-01T06:41:48.918Z,52.47
2019-05-01T06:44:54.337Z,44.23
2019-05-01T06:47:59.812Z,45.33
2019-05-01T06:51:21.728Z,45.50
2019-05-01T06:54:28.576Z,45.93
2019-05-01T06:57:32.815Z,46.33
2019-05-01T07:00:39.131Z,43.70
2019-05-01T07:03:47.003Z,50.33
2019-05-01T07:06:50.978Z,39.13
2019-05-01T07:09:56.709Z,44.67
2019-05-01T07:13:04.917Z,40.40
2019-05-01T07:16:08.151Z,40.33
2019-05-01T07:19:12.500Z,36.25
2019-05-01T07:22:16.347Z,31.93
2019-05-01T07:25:20.332Z,30.17
2019-05-01T07:28:28.907Z,31.35
2019-05-01T07:31:32.605Z,34.23
2019-05-01T07:34:36.553Z,33.48
2019-05-01T07:37:40.432Z,31.00
2019-05-01T07:40:44.661Z,29.70
2019-05-01T07:43:59.687Z,28.80
2019-05-01T07:47:15.218Z,33.83
2019-05-01T07:50:19.558Z,35.75
2019-05-01T07:53:23.877Z,30.35
2019-05-01T07:56:30.045Z,32.65
2019-05-01T07:59:34.109Z,26.90
2019-05-01T08:02:37.965Z,28.25
2019-05-01T08:05:45.574Z,33.50
2019-05-01T08:08:47.338Z,30.60
2019-05-01T08:11:51.203Z,33.42
2019-05-01T08:14:55.096Z,31.67
2019-05-01T08:18:00.487Z,30.67
2019-05-01T08:21:06.440Z,35.87
2019-05-01T08:24:10.315Z,39.07
2019-05-01T08:27:20.245Z,33.00
2019-05-01T08:30:39.659Z,30.37
2019-05-01T08:33:57.363Z,27.00
2019-05-01T08:37:01.271Z,37.33
2019-05-01T08:40:06.963Z,31.87
2019-05-01T08:43:13.721Z,31.03
2019-05-01T08:46:35.846Z,31.87
2019-05-01T08:49:53.241Z,30.40
2019-05-01T08:52:57.157Z,31.07
2019-05-01T08:56:00.983Z,26.57
2019-05-01T08:59:04.963Z,28.87
2019-05-01T09:02:09.853Z,27.23
2019-05-01T09:05:28.144Z,29.77
2019-05-01T09:08:19.817Z,26.57
2019-05-01T09:11:23.742Z,27.93
2019-05-01T09:14:29.860Z,28.00
2019-05-01T09:17:33.130Z,24.23
2019-05-01T09:20:38.437Z,23.87
2019-05-01T09:23:46.166Z,21.70
2019-05-01T09:26:55.417Z,22.93
2019-05-01T09:30:07.323Z,16.73
2019-05-01T09:33:11.217Z,18.13
2019-05-01T09:36:15.137Z,18.53
2019-05-01T09:39:20.614Z,16.67
2019-05-01T09:42:25.415Z,15.27
2019-05-01T09:45:29.312Z,11.27
2019-05-01T09:48:33.238Z,9.83
2019-05-01T09:51:42.611Z,12.57
2019-05-01T09:54:48.500Z,18.70
2019-05-01T09:57:52.346Z,9.13
2019-05-01T10:00:57.834Z,9.80
2019-05-01T10:04:01.679Z,8.03
2019-05-01T10:07:06.915Z,9.10
2019-05-01T10:10:10.947Z,5.87
2019-05-01T10:13:17.652Z,9.20
2019-05-01T10:16:20.382Z,9.40
2019-05-01T10:19:24.268Z,11.33
2019-05-01T10:22:28.139Z,9.23
2019-05-01T10:25:32.280Z,8.87
2019-05-01T10:28:49.971Z,10.13
2019-05-01T10:32:11.849Z,8.60
2019-05-01T10:35:42.588Z,12.17
2019-05-01T10:38:39.823Z,8.73
2019-05-01T10:41:46.334Z,9.40
2019-05-01T10:44:49.090Z,13.67
2019-05-01T10:47:52.941Z,9.17
2019-05-01T10:50:56.857Z,8.27
2019-05-01T10:54:00.732Z,12.83
2019-05-01T10:57:04.692Z,8.13
2019-05-01T11:00:09.406Z,8.20
2019-05-01T11:03:13.236Z,7.90
2019-05-01T11:06:17.116Z,7.37
2019-05-01T11:09:21.021Z,8.17
2019-05-01T11:12:24.896Z,9.07
2019-05-01T11:15:28.766Z,8.83
2019-05-01T11:18:32.577Z,10.57
2019-05-01T11:21:36.469Z,14.80
2019-05-01T11:24:40.312Z,7.83
2019-05-01T11:27:44.227Z,8.33
2019-05-01T11:30:48.076Z,8.73
2019-05-01T11:33:59.262Z,12.53
2019-05-01T11:37:04.673Z,11.80
2019-05-01T11:40:16.340Z,12.77
2019-05-01T11:43:20.197Z,9.83
2019-05-01T11:46:24.070Z,8.80
2019-05-01T11:49:27.922Z,12.23
2019-05-01T11:52:31.810Z,10.67
2019-05-01T11:55:35.693Z,9.30
2019-05-01T11:58:39.594Z,8.90
2019-05-01T12:01:43.434Z,12.47
2019-05-01T12:04:47.368Z,10.43
2019-05-01T12:07:51.180Z,10.80
2019-05-01T12:10:56.094Z,9.47
2019-05-01T12:13:59.939Z,14.03
2019-05-01T12:17:05.408Z,10.57
2019-05-01T12:20:09.977Z,9.60
2019-05-01T12:23:13.893Z,9.10
2019-05-01T12:26:17.733Z,7.90
2019-05-01T12:29:21.652Z,11.03
2019-05-01T12:32:25.500Z,12.87
2019-05-01T12:35:29.408Z,11.57
2019-05-01T12:38:33.263Z,7.60
2019-05-01T12:41:38.840Z,6.23
2019-05-01T12:44:42.740Z,6.67
2019-05-01T12:47:57.077Z,14.57
2019-05-01T12:51:00.897Z,6.43
2019-05-01T12:54:12.523Z,8.03
2019-05-01T12:57:17.934Z,6.73
2019-05-01T13:00:27.351Z,7.87
2019-05-01T13:03:31.200Z,12.20
2019-05-01T13:06:35.056Z,9.43
2019-05-01T13:09:38.913Z,9.53
2019-05-01T13:12:42.827Z,8.33
2019-05-01T13:15:46.658Z,8.90
2019-05-01T13:18:50.559Z,8.57
2019-05-01T13:21:54.422Z,9.27
2019-05-01T13:24:58.319Z,7.40
2019-05-01T13:28:18.495Z,9.10
2019-05-01T13:31:29.758Z,10.17
2019-05-01T13:34:33.618Z,8.57
2019-05-01T13:37:37.476Z,9.57
2019-05-01T13:40:41.351Z,13.50
2019-05-01T13:43:45.228Z,11.10
2019-05-01T13:46:49.112Z,12.70
2019-05-01T13:49:53.032Z,12.70
2019-05-01T13:52:56.919Z,10.03
2019-05-01T13:56:00.840Z,14.97
2019-05-01T13:59:06.761Z,10.27
2019-05-01T14:02:10.757Z,8.00
2019-05-01T14:05:14.817Z,8.33
2019-05-01T14:08:18.700Z,11.80
2019-05-01T14:11:22.532Z,10.90
2019-05-01T14:14:26.433Z,6.87
2019-05-01T14:17:30.314Z,7.13
2019-05-01T14:20:38.552Z,13.37
2019-05-01T14:24:02.086Z,6.53
2019-05-01T14:27:07.711Z,5.77
2019-05-01T14:30:12.420Z,10.77
2019-05-01T14:33:16.314Z,7.00
2019-05-01T14:36:20.188Z,7.60
2019-05-01T14:39:24.097Z,7.37
2019-05-01T14:42:27.971Z,10.37
2019-05-01T14:45:31.843Z,8.33
2019-05-01T14:48:35.714Z,12.43
2019-05-01T14:51:39.811Z,11.03
2019-05-01T14:54:43.657Z,9.10
2019-05-01T14:57:47.547Z,9.37
2019-05-01T15:00:51.400Z,10.70
2019-05-01T15:03:55.287Z,7.10
2019-05-01T15:06:59.133Z,11.37
2019-05-01T15:10:03.040Z,11.03
2019-05-01T15:13:14.512Z,8.90
2019-05-01T15:16:38.238Z,9.93
2019-05-01T15:19:46.322Z,11.47
2019-05-01T15:22:50.267Z,10.23
2019-05-01T15:25:54.096Z,10.07
2019-05-01T15:28:57.978Z,10.90
2019-05-01T15:32:01.817Z,11.67
2019-05-01T15:35:06.583Z,9.97
2019-05-01T15:38:10.472Z,11.43
2019-05-01T15:41:32.361Z,12.90
2019-05-01T15:44:37.779Z,7.43
2019-05-01T15:47:41.678Z,10.27
2019-05-01T15:50:45.508Z,13.70
2019-05-01T15:53:49.414Z,14.70
2019-05-01T15:56:53.285Z,10.97
2019-05-01T15:59:57.195Z,9.87
2019-05-01T16:03:01.079Z,10.80
2019-05-01T16:06:05.000Z,9.50
2019-05-01T16:09:09.053Z,10.87
2019-05-01T16:12:26.402Z,11.57
2019-05-01T16:15:34.748Z,7.97
2019-05-01T16:18:38.615Z,15.17
2019-05-01T16:21:42.516Z,12.50
2019-05-01T16:24:46.422Z,10.23
2019-05-01T16:27:50.312Z,10.67
2019-05-01T16:30:54.241Z,11.83
2019-05-01T16:33:58.082Z,16.40
2019-05-01T16:37:01.986Z,11.27
2019-05-01T16:40:26.973Z,11.07
2019-05-01T16:43:30.916Z,14.10
2019-05-01T16:46:34.777Z,13.27
2019-05-01T16:49:38.622Z,10.30
2019-05-01T16:52:42.919Z,14.43
2019-05-01T16:55:46.922Z,13.03
2019-05-01T16:58:50.832Z,13.17
2019-05-01T17:01:56.300Z,14.47
2019-05-01T17:05:13.984Z,12.57
2019-05-01T17:08:22.191Z,13.43
2019-05-01T17:11:27.664Z,9.97
2019-05-01T17:14:31.735Z,12.57
2019-05-01T17:17:36.144Z,16.87
2019-05-01T17:20:40.116Z,15.87
2019-05-01T17:23:44.027Z,13.97
2019-05-01T17:26:47.947Z,14.40
2019-05-01T17:29:51.888Z,14.77
2019-05-01T17:32:55.862Z,17.30
2019-05-01T17:36:02.643Z,13.90
2019-05-01T17:39:07.077Z,13.33
2019-05-01T17:42:11.079Z,13.97
2019-05-01T17:45:15.167Z,15.17
2019-05-01T17:48:19.188Z,14.30
2019-05-01T17:51:23.134Z,13.60
2019-05-01T17:54:27.042Z,15.00
2019-05-01T17:57:33.598Z,18.03
2019-05-01T18:00:38.125Z,22.93
2019-05-01T18:04:01.816Z,16.13
2019-05-01T18:07:06.047Z,24.40
2019-05-01T18:10:10.369Z,19.80
2019-05-01T18:13:14.277Z,19.50
2019-05-01T18:16:18.233Z,26.13
2019-05-01T18:19:22.223Z,27.57
2019-05-01T18:22:32.154Z,26.33
2019-05-01T18:25:37.964Z,23.97
2019-05-01T18:28:43.517Z,21.53
2019-05-01T18:31:47.544Z,25.10
2019-05-01T18:34:51.529Z,27.80
2019-05-01T18:37:59.730Z,21.30
2019-05-01T18:41:07.998Z,26.30
2019-05-01T18:44:11.957Z,26.50
2019-05-01T18:47:16.227Z,24.87
2019-05-01T18:50:21.400Z,27.33
2019-05-01T18:53:25.684Z,33.27
2019-05-01T18:56:31.359Z,27.03
2019-05-01T18:59:38.074Z,29.03
2019-05-01T19:02:43.971Z,39.47
2019-05-01T19:05:48.282Z,48.27
2019-05-01T19:08:53.369Z,48.37
2019-05-01T19:11:58.987Z,39.17
2019-05-01T19:15:05.468Z,37.00
2019-05-01T19:18:10.674Z,34.50
2019-05-01T19:21:15.401Z,32.33
2019-05-01T19:24:21.979Z,34.17
2019-05-01T19:27:29.926Z,32.57
2019-05-01T19:30:33.978Z,29.77
2019-05-01T19:33:41.766Z,30.83
2019-05-01T19:36:46.809Z,28.87
2019-05-01T19:39:53.682Z,30.30
2019-05-01T19:43:00.515Z,34.57
2019-05-01T19:46:08.008Z,30.10
2019-05-01T19:49:13.458Z,37.07
2019-05-01T19:52:17.509Z,34.43
2019-05-01T19:55:25.853Z,37.53
2019-05-01T19:58:31.538Z,36.03
2019-05-01T20:01:38.544Z,37.23
2019-05-01T20:04:45.192Z,30.90
2019-05-01T20:07:51.184Z,37.50
2019-05-01T20:10:55.222Z,46.03
2019-05-01T20:14:01.649Z,43.00
2019-05-01T20:17:10.127Z,40.50
2019-05-01T20:20:12.365Z,50.80
2019-05-01T20:23:16.377Z,51.90
2019-05-01T20:26:22.049Z,42.33
2019-05-01T20:29:32.098Z,43.33
2019-05-01T20:32:37.366Z,35.77
2019-05-01T20:35:41.281Z,25.77
2019-05-01T20:38:46.934Z,29.23
2019-05-01T20:41:55.833Z,27.60
2019-05-01T20:45:05.497Z,23.43
2019-05-01T20:48:11.708Z,22.33
2019-05-01T20:51:19.872Z,25.80
2019-05-01T20:54:20.021Z,27.80
2019-05-01T20:57:31.337Z,32.03
2019-05-01T21:00:35.246Z,37.00
2019-05-01T21:03:41.777Z,27.43
2019-05-01T21:06:48.237Z,26.07
2019-05-01T21:09:57.725Z,31.57
2019-05-01T21:13:02.243Z,29.00
2019-05-01T21:16:07.222Z,33.83
2019-05-01T21:19:11.047Z,32.07
2019-05-01T21:22:14.967Z,37.67
2019-05-01T21:25:21.518Z,35.03
2019-05-01T21:28:25.456Z,45.97
2019-05-01T21:31:30.345Z,48.17
2019-05-01T21:34:34.301Z,48.93
2019-05-01T21:37:38.155Z,45.53
2019-05-01T21:40:43.916Z,45.17
2019-05-01T21:43:47.575Z,44.47
2019-05-01T21:46:54.597Z,39.27
2019-05-01T21:49:58.433Z,35.20
2019-05-01T21:53:06.809Z,35.53
2019-05-01T21:56:11.043Z,35.57
2019-05-01T21:59:15.135Z,31.67
2019-05-01T22:02:21.612Z,27.07
2019-05-01T22:05:26.737Z,21.07
2019-05-01T22:08:34.426Z,25.97
2019-05-01T22:11:37.754Z,23.07
2019-05-01T22:14:44.596Z,20.10
2019-05-01T22:17:51.569Z,21.27
2019-05-01T22:20:57.997Z,21.30
2019-05-01T22:24:04.987Z,20.20
2019-05-01T22:27:10.443Z,22.60
2019-05-01T22:30:24.080Z,22.90
2019-05-01T22:33:29.247Z,25.73
2019-05-01T22:36:34.425Z,20.53
2019-05-01T22:39:41.952Z,20.40
2019-05-01T22:42:48.857Z,23.40
2019-05-01T22:45:56.220Z,23.33
2019-05-01T22:49:00.947Z,19.63
2019-05-01T22:52:05.923Z,22.57
2019-05-01T22:55:11.415Z,21.03
2019-05-01T22:58:28.082Z,22.90
2019-05-01T23:01:35.073Z,22.97
2019-05-01T23:04:38.892Z,24.07
2019-05-01T23:07:47.296Z,24.07
2019-05-01T23:10:51.817Z,22.70
2019-05-01T23:13:56.800Z,24.57
2019-05-01T23:17:11.114Z,24.83
2019-05-01T23:20:21.207Z,24.13
2019-05-01T23:23:27.475Z,27.50
2019-05-01T23:26:31.453Z,25.47
2019-05-01T23:29:37.512Z,27.07
2019-05-01T23:32:43.692Z,27.13
2019-05-01T23:35:47.582Z,26.97
2019-05-01T23:38:52.828Z,24.70
2019-05-01T23:41:58.252Z,27.70
2019-05-01T23:45:07.065Z,28.43
2019-05-01T23:48:12.364Z,28.43
2019-05-01T23:51:16.248Z,27.57
2019-05-01T23:54:21.590Z,29.20
2019-05-01T23:57:25.547Z,28.33
